createdAt,value
2023-04-27T00:02:33.021Z,99328.78
2023-04-27T00:05:20.405Z,99333.25
2023-04-27T00:08:08.105Z,99318.66
2023-04-27T00:10:56.266Z,99331.88
2023-04-27T00:13:43.313Z,99329.31
2023-04-27T00:16:30.614Z,99328.53
2023-04-27T00:19:17.717Z,99322.78
2023-04-27T00:22:04.857Z,99315.13
2023-04-27T00:24:52.022Z,99312.88
2023-04-27T00:27:39.047Z,99306.91
2023-04-27T00:30:26.123Z,99317.13
2023-04-27T00:33:13.218Z,99316.47
2023-04-27T00:36:04.350Z,99324.94
2023-04-27T00:38:51.407Z,99316.13
2023-04-27T00:41:42.090Z,99333.88
2023-04-27T00:44:29.149Z,99324.53
2023-04-27T00:47:17.477Z,99319.31
2023-04-27T00:50:08.647Z,99313.25
2023-04-27T00:52:56.816Z,99326.63
2023-04-27T00:55:43.915Z,99326.06
2023-04-27T00:58:30.983Z,99329.28
2023-04-27T01:01:20.789Z,99323.41
2023-04-27T01:04:08.120Z,99324.38
2023-04-27T01:06:55.391Z,99303.09
2023-04-27T01:09:42.922Z,99323.63
2023-04-27T01:12:29.924Z,99314.22
2023-04-27T01:15:16.970Z,99311.25
2023-04-27T01:18:04.564Z,99310.81
2023-04-27T01:20:51.700Z,99310.06
2023-04-27T01:23:38.814Z,99310.91
2023-04-27T01:26:26.185Z,99319.06
2023-04-27T01:29:13.674Z,99319.47
2023-04-27T01:32:00.951Z,99318.41
2023-04-27T01:34:47.985Z,99312.81
2023-04-27T01:37:35.835Z,99325.53
2023-04-27T01:40:22.870Z,99323.25
2023-04-27T01:43:09.930Z,99325.91
2023-04-27T01:45:57.485Z,99322.22
2023-04-27T01:48:44.581Z,99331.88
2023-04-27T01:51:33.146Z,99328.28
2023-04-27T01:54:20.171Z,99330.38
2023-04-27T01:57:07.146Z,99329.53
2023-04-27T01:59:54.202Z,99339.19
2023-04-27T02:02:41.446Z,99326.88
2023-04-27T02:05:28.695Z,99344.69
2023-04-27T02:08:15.717Z,99330.16
2023-04-27T02:11:03.274Z,99336.81
2023-04-27T02:13:50.329Z,99334.81
2023-04-27T02:16:37.690Z,99340.03
2023-04-27T02:19:25.026Z,99344.69
2023-04-27T02:22:12.485Z,99356.41
2023-04-27T02:25:00.603Z,99348.06
2023-04-27T02:27:47.637Z,99352.81
2023-04-27T02:30:35.149Z,99359.06
2023-04-27T02:33:22.273Z,99351.13
2023-04-27T02:36:09.440Z,99363.25
2023-04-27T02:38:56.712Z,99345.91
2023-04-27T02:41:43.865Z,99346.75
2023-04-27T02:44:31.009Z,99341.91
2023-04-27T02:47:18.185Z,99339.53
2023-04-27T02:50:05.854Z,99339.34
2023-04-27T02:52:52.901Z,99349.66
2023-04-27T02:55:51.038Z,99354.25
2023-04-27T02:58:38.068Z,99351.41
2023-04-27T03:01:25.240Z,99348.22
2023-04-27T03:04:14.325Z,99342.47
2023-04-27T03:07:01.969Z,99348.53
2023-04-27T03:09:49.074Z,99353.84
2023-04-27T03:12:36.209Z,99343.28
2023-04-27T03:15:23.286Z,99344.88
2023-04-27T03:18:10.351Z,99346.00
2023-04-27T03:21:08.651Z,99351.31
2023-04-27T03:23:55.844Z,99343.97
2023-04-27T03:26:42.964Z,99355.66
2023-04-27T03:29:30.014Z,99351.00
2023-04-27T03:32:17.056Z,99340.78
2023-04-27T03:35:04.711Z,99351.19
2023-04-27T03:37:51.766Z,99357.88
2023-04-27T03:40:38.866Z,99352.78
2023-04-27T03:43:26.607Z,99360.31
2023-04-27T03:46:13.754Z,99344.91
2023-04-27T03:49:00.992Z,99349.50
2023-04-27T03:51:48.064Z,99336.84
2023-04-27T03:54:35.100Z,99339.81
2023-04-27T03:57:22.247Z,99346.75
2023-04-27T04:00:12.268Z,99354.72
2023-04-27T04:02:59.455Z,99360.66
2023-04-27T04:05:47.341Z,99347.88
2023-04-27T04:08:34.663Z,99354.25
2023-04-27T04:11:22.592Z,99364.56
2023-04-27T04:14:09.662Z,99361.91
2023-04-27T04:16:56.720Z,99360.22
2023-04-27T04:19:43.841Z,99359.16
2023-04-27T04:22:30.916Z,99362.81
2023-04-27T04:25:18.170Z,99359.22
2023-04-27T04:28:05.502Z,99350.78
2023-04-27T04:30:52.638Z,99367.72
2023-04-27T04:33:39.754Z,99370.38
2023-04-27T04:36:31.289Z,99379.66
2023-04-27T04:39:22.360Z,99364.78
2023-04-27T04:42:09.465Z,99364.78
2023-04-27T04:44:57.133Z,99375.00
2023-04-27T04:47:44.244Z,99374.69
2023-04-27T04:50:31.270Z,99383.88
2023-04-27T04:53:18.474Z,99371.53
2023-04-27T04:56:12.920Z,99379.81
2023-04-27T04:58:59.960Z,99380.25
2023-04-27T05:01:46.991Z,99381.22
2023-04-27T05:04:34.228Z,99395.16
2023-04-27T05:07:24.740Z,99379.19
2023-04-27T05:10:12.465Z,99388.97
2023-04-27T05:12:59.504Z,99386.81
2023-04-27T05:15:46.810Z,99387.25
2023-04-27T05:18:36.676Z,99381.91
2023-04-27T05:21:23.790Z,99391.50
2023-04-27T05:24:11.369Z,99384.38
2023-04-27T05:26:59.732Z,99401.59
2023-04-27T05:29:48.472Z,99404.84
2023-04-27T05:32:37.538Z,99400.81
2023-04-27T05:35:24.785Z,99402.91
2023-04-27T05:38:12.048Z,99402.47
2023-04-27T05:40:59.715Z,99395.63
2023-04-27T05:43:46.876Z,99404.75
2023-04-27T05:46:35.394Z,99400.16
2023-04-27T05:49:24.275Z,99396.41
2023-04-27T05:52:11.282Z,99403.78
2023-04-27T05:54:58.888Z,99412.91
2023-04-27T05:57:47.731Z,99421.09
2023-04-27T06:00:39.072Z,99410.19
2023-04-27T06:03:26.394Z,99416.41
2023-04-27T06:06:13.601Z,99413.28
2023-04-27T06:09:00.726Z,99415.59
2023-04-27T06:11:47.806Z,99406.75
2023-04-27T06:14:36.616Z,99416.34
2023-04-27T06:17:23.972Z,99409.81
2023-04-27T06:20:12.092Z,99421.59
2023-04-27T06:23:00.623Z,99424.31
2023-04-27T06:25:47.697Z,99433.34
2023-04-27T06:28:34.816Z,99434.91
2023-04-27T06:31:22.007Z,99432.03
2023-04-27T06:34:09.196Z,99434.69
2023-04-27T06:36:56.517Z,99430.94
2023-04-27T06:39:44.927Z,99436.88
2023-04-27T06:42:32.126Z,99433.56
2023-04-27T06:45:19.455Z,99436.47
2023-04-27T06:48:06.608Z,99433.00
2023-04-27T06:50:53.855Z,99424.72
2023-04-27T06:53:41.073Z,99428.34
2023-04-27T06:56:28.173Z,99424.69
2023-04-27T06:59:15.434Z,99430.16
2023-04-27T07:02:02.784Z,99426.25
2023-04-27T07:04:50.401Z,99423.41
2023-04-27T07:07:37.529Z,99429.91
2023-04-27T07:10:24.587Z,99423.91
2023-04-27T07:13:12.646Z,99420.88
2023-04-27T07:16:01.395Z,99420.31
2023-04-27T07:18:48.539Z,99428.53
2023-04-27T07:21:35.544Z,99428.22
2023-04-27T07:24:22.656Z,99429.06
2023-04-27T07:27:10.384Z,99417.81
2023-04-27T07:29:58.118Z,99414.38
2023-04-27T07:32:45.790Z,99413.25
2023-04-27T07:35:33.154Z,99424.84
2023-04-27T07:38:20.999Z,99422.97
2023-04-27T07:41:09.202Z,99416.09
2023-04-27T07:43:58.053Z,99423.56
2023-04-27T07:46:47.444Z,99421.03
2023-04-27T07:49:35.636Z,99434.25
2023-04-27T07:52:22.761Z,99413.66
2023-04-27T07:55:10.155Z,99422.97
2023-04-27T07:57:57.510Z,99425.75
2023-04-27T08:00:44.635Z,99420.13
2023-04-27T08:03:32.361Z,99427.38
2023-04-27T08:06:20.143Z,99432.44
2023-04-27T08:09:08.212Z,99431.16
2023-04-27T08:11:55.302Z,99432.53
2023-04-27T08:14:42.668Z,99426.41
2023-04-27T08:17:29.766Z,99422.31
2023-04-27T08:20:16.933Z,99427.91
2023-04-27T08:23:03.971Z,99426.66
2023-04-27T08:25:51.111Z,99429.75
2023-04-27T08:28:38.148Z,99432.94
2023-04-27T08:31:26.225Z,99423.63
2023-04-27T08:34:13.371Z,99433.59
2023-04-27T08:37:00.750Z,99432.44
2023-04-27T08:39:49.111Z,99437.75
2023-04-27T08:42:36.421Z,99429.47
2023-04-27T08:45:25.072Z,99432.47
2023-04-27T08:48:12.205Z,99428.22
2023-04-27T08:51:00.916Z,99437.56
2023-04-27T08:53:52.905Z,99434.50
2023-04-27T08:56:40.061Z,99424.97
2023-04-27T08:59:27.261Z,99427.47
2023-04-27T09:02:21.367Z,99429.91
2023-04-27T09:05:16.207Z,99425.56
2023-04-27T09:08:08.015Z,99430.97
2023-04-27T09:10:55.982Z,99422.66
2023-04-27T09:13:47.326Z,99419.91
2023-04-27T09:16:34.444Z,99417.41
2023-04-27T09:19:27.264Z,99416.53
2023-04-27T09:22:15.714Z,99415.91
2023-04-27T09:25:02.996Z,99411.75
2023-04-27T09:27:50.110Z,99403.66
2023-04-27T09:30:37.954Z,99398.94
2023-04-27T09:33:29.989Z,99397.66
2023-04-27T09:36:17.123Z,99386.59
2023-04-27T09:39:05.290Z,99378.72
2023-04-27T09:41:52.469Z,99376.53
2023-04-27T09:44:39.546Z,99385.41
2023-04-27T09:47:28.811Z,99375.63
2023-04-27T09:50:16.347Z,99380.84
2023-04-27T09:53:06.900Z,99372.69
2023-04-27T09:56:06.140Z,99369.31
2023-04-27T09:59:30.814Z,99365.31
2023-04-27T10:02:25.381Z,99369.66
2023-04-27T10:05:22.499Z,99370.28
2023-04-27T10:08:11.887Z,99362.53
2023-04-27T10:10:58.975Z,99358.34
2023-04-27T10:13:54.884Z,99352.09
2023-04-27T10:16:56.893Z,99350.81
2023-04-27T10:19:57.847Z,99348.03
2023-04-27T10:22:52.759Z,99334.34
2023-04-27T10:25:41.732Z,99347.22
2023-04-27T10:28:39.196Z,99333.59
2023-04-27T10:31:30.180Z,99335.41
2023-04-27T10:34:20.695Z,99330.41
2023-04-27T10:37:12.626Z,99320.59
2023-04-27T10:40:08.255Z,99312.19
2023-04-27T10:42:55.369Z,99322.09
2023-04-27T10:45:43.576Z,99324.63
2023-04-27T10:48:30.668Z,99319.28
2023-04-27T10:51:18.141Z,99313.50
2023-04-27T10:54:05.419Z,99324.41
2023-04-27T10:56:52.545Z,99330.19
2023-04-27T10:59:55.568Z,99328.88
2023-04-27T11:02:42.775Z,99323.34
2023-04-27T11:05:33.404Z,99318.00
2023-04-27T11:08:21.560Z,99327.25
2023-04-27T11:11:16.552Z,99326.84
2023-04-27T11:14:03.925Z,99324.50
2023-04-27T11:16:51.316Z,99309.06
2023-04-27T11:19:48.063Z,99306.91
2023-04-27T11:22:45.016Z,99309.41
2023-04-27T11:25:32.369Z,99303.75
2023-04-27T11:28:20.660Z,99302.06
2023-04-27T11:31:08.141Z,99306.09
2023-04-27T11:33:55.982Z,99295.75
2023-04-27T11:36:43.458Z,99295.81
2023-04-27T11:39:38.190Z,99291.38
2023-04-27T11:42:28.502Z,99295.16
2023-04-27T11:45:15.740Z,99294.63
2023-04-27T11:48:03.957Z,99297.28
2023-04-27T11:50:53.432Z,99302.06
2023-04-27T11:53:40.652Z,99286.06
2023-04-27T11:56:34.619Z,99297.25
2023-04-27T11:59:26.550Z,99288.19
2023-04-27T12:02:13.637Z,99285.91
2023-04-27T12:05:01.129Z,99279.97
2023-04-27T12:07:48.440Z,99273.63
2023-04-27T12:10:35.709Z,99272.72
2023-04-27T12:13:22.742Z,99273.75
2023-04-27T12:16:09.761Z,99265.38
2023-04-27T12:18:56.994Z,99252.13
2023-04-27T12:21:44.485Z,99258.28
2023-04-27T12:24:32.401Z,99262.00
2023-04-27T12:27:19.514Z,99260.44
2023-04-27T12:30:07.863Z,99259.97
2023-04-27T12:32:55.053Z,99262.69
2023-04-27T12:35:42.404Z,99266.66
2023-04-27T12:38:29.636Z,99270.19
2023-04-27T12:41:16.716Z,99271.53
2023-04-27T12:44:04.919Z,99275.81
2023-04-27T12:46:52.211Z,99255.16
2023-04-27T12:49:40.527Z,99255.34
2023-04-27T12:52:27.771Z,99261.41
2023-04-27T12:55:28.846Z,99264.78
2023-04-27T12:58:19.082Z,99265.22
2023-04-27T13:01:12.443Z,99266.06
2023-04-27T13:04:01.834Z,99258.94
2023-04-27T13:06:50.241Z,99255.75
2023-04-27T13:09:37.522Z,99263.44
2023-04-27T13:12:24.907Z,99263.31
2023-04-27T13:15:12.111Z,99249.69
2023-04-27T13:17:59.757Z,99252.63
2023-04-27T13:20:48.659Z,99261.16
2023-04-27T13:23:35.804Z,99260.16
2023-04-27T13:26:24.380Z,99261.28
2023-04-27T13:29:11.460Z,99254.50
2023-04-27T13:31:58.688Z,99248.00
2023-04-27T13:34:45.832Z,99237.53
2023-04-27T13:37:32.904Z,99242.97
2023-04-27T13:40:22.829Z,99238.75
2023-04-27T13:43:09.892Z,99235.69
2023-04-27T13:46:00.776Z,99246.69
2023-04-27T13:48:48.435Z,99237.94
2023-04-27T13:51:36.067Z,99232.84
2023-04-27T13:54:23.217Z,99214.28
2023-04-27T13:57:10.305Z,99238.81
2023-04-27T13:59:57.430Z,99221.97
2023-04-27T14:02:44.513Z,99228.13
2023-04-27T14:05:32.253Z,99237.53
2023-04-27T14:08:19.433Z,99236.56
2023-04-27T14:12:07.527Z,99169.69
2023-04-27T14:32:28.203Z,99180.75
2023-04-27T14:59:46.729Z,99161.47
2023-04-27T15:51:49.521Z,99216.66
2023-04-27T15:58:43.417Z,99149.06
2023-04-27T16:01:27.581Z,99151.44
2023-04-27T16:03:57.757Z,99190.19
2023-04-27T16:06:42.165Z,99136.28
2023-04-27T16:09:11.992Z,99189.56
2023-04-27T16:11:44.162Z,99138.88
2023-04-27T16:14:22.305Z,99176.97
2023-04-27T16:16:57.307Z,99170.88
2023-04-27T16:19:26.342Z,99159.38
2023-04-27T16:22:11.510Z,99131.41
2023-04-27T16:24:47.984Z,99138.72
2023-04-27T16:27:25.749Z,99143.50
2023-04-27T16:30:01.734Z,99159.72
2023-04-27T16:32:38.830Z,99209.66
2023-04-27T16:35:11.975Z,99158.31
2023-04-27T16:38:03.053Z,99152.22
2023-04-27T16:40:38.940Z,99181.84
2023-04-27T16:43:09.702Z,99146.31
2023-04-27T16:45:37.227Z,99146.28
2023-04-27T16:48:17.348Z,99178.81
2023-04-27T16:50:58.447Z,99226.91
2023-04-27T16:53:28.354Z,99226.50
2023-04-27T16:55:59.680Z,99158.56
2023-04-27T16:58:49.012Z,99190.78
2023-04-27T17:01:24.468Z,99168.44
2023-04-27T17:04:14.291Z,99166.84
2023-04-27T17:28:26.772Z,99236.66
2023-04-27T17:30:53.805Z,99210.84
2023-04-27T17:33:20.687Z,99226.59
2023-04-27T17:35:47.481Z,99255.47
2023-04-27T17:38:15.182Z,99260.31
2023-04-27T17:40:42.896Z,99249.16
2023-04-27T17:43:11.235Z,99253.72
2023-04-27T17:45:38.637Z,99249.47
2023-04-27T17:48:07.099Z,99267.28
2023-04-27T17:50:36.136Z,99264.38
2023-04-27T17:53:03.086Z,99263.03
2023-04-27T17:55:29.912Z,99253.69
2023-04-27T17:57:57.234Z,99255.59
2023-04-27T18:00:24.322Z,99264.28
2023-04-27T18:02:51.353Z,99256.31
2023-04-27T18:05:18.336Z,99261.78
2023-04-27T18:07:46.710Z,99258.16
2023-04-27T18:10:13.573Z,99262.94
2023-04-27T18:12:40.462Z,99278.50
2023-04-27T18:15:09.707Z,99270.31
2023-04-27T18:17:36.793Z,99281.59
2023-04-27T18:20:09.877Z,99273.25
2023-04-27T18:22:40.288Z,99282.84
2023-04-27T18:25:09.195Z,99278.81
2023-04-27T18:27:38.102Z,99272.91
2023-04-27T18:30:07.644Z,99278.75
2023-04-27T18:32:35.068Z,99267.13
2023-04-27T18:35:02.676Z,99278.97
2023-04-27T18:37:29.867Z,99284.38
2023-04-27T18:39:56.620Z,99278.75
2023-04-27T18:42:24.101Z,99304.19
2023-04-27T18:44:55.159Z,99288.69
2023-04-27T18:47:22.133Z,99300.03
2023-04-27T18:49:52.120Z,99293.00
2023-04-27T18:52:18.785Z,99310.78
2023-04-27T18:54:45.692Z,99311.06
2023-04-27T18:57:13.087Z,99322.41
2023-04-27T18:59:40.146Z,99311.31
2023-04-27T19:02:09.378Z,99324.03
2023-04-27T19:04:36.660Z,99309.22
2023-04-27T19:07:03.795Z,99322.63
2023-04-27T19:09:30.717Z,99319.66
2023-04-27T19:12:02.871Z,99323.47
2023-04-27T19:14:31.520Z,99310.34
2023-04-27T19:16:58.404Z,99321.91
2023-04-27T19:19:27.176Z,99330.38
2023-04-27T19:21:54.539Z,99322.31
2023-04-27T19:24:21.481Z,99328.09
2023-04-27T19:26:48.917Z,99320.69
2023-04-27T19:29:17.077Z,99331.41
2023-04-27T19:31:44.711Z,99330.97
2023-04-27T19:34:11.651Z,99314.25
2023-04-27T19:36:38.925Z,99307.25
2023-04-27T19:39:06.486Z,99315.59
2023-04-27T19:41:33.644Z,99329.94
2023-04-27T19:44:01.225Z,99337.25
2023-04-27T19:46:28.490Z,99353.19
2023-04-27T19:49:00.163Z,99339.28
2023-04-27T19:51:27.760Z,99337.72
2023-04-27T19:53:54.774Z,99348.56
2023-04-27T19:56:21.788Z,99355.38
2023-04-27T19:58:48.690Z,99344.34
2023-04-27T20:01:15.502Z,99351.50
2023-04-27T20:03:42.570Z,99363.56
2023-04-27T20:06:10.462Z,99372.38
2023-04-27T20:08:37.458Z,99366.84
2023-04-27T20:11:04.488Z,99362.16
2023-04-27T20:13:31.659Z,99358.75
2023-04-27T20:15:59.288Z,99361.91
2023-04-27T20:18:26.044Z,99346.56
2023-04-27T20:20:52.782Z,99361.97
2023-04-27T20:23:19.705Z,99379.78
2023-04-27T20:25:46.614Z,99369.16
2023-04-27T20:28:13.409Z,99368.22
2023-04-27T20:30:40.130Z,99351.41
2023-04-27T20:33:07.299Z,99364.13
2023-04-27T20:35:36.310Z,99373.13
2023-04-27T20:38:03.050Z,99375.91
2023-04-27T20:40:29.867Z,99383.56
2023-04-27T20:42:56.565Z,99381.16
2023-04-27T20:45:23.457Z,99390.13
2023-04-27T20:47:50.228Z,99362.00
2023-04-27T20:50:17.076Z,99369.53
2023-04-27T20:52:44.022Z,99377.53
2023-04-27T20:55:11.235Z,99384.81
2023-04-27T20:57:38.045Z,99373.25
2023-04-27T21:00:05.310Z,99383.34
2023-04-27T21:02:32.127Z,99378.84
2023-04-27T21:04:58.948Z,99374.34
2023-04-27T21:07:25.672Z,99379.44
2023-04-27T21:09:52.422Z,99364.84
2023-04-27T21:12:19.234Z,99379.28
2023-04-27T21:14:46.036Z,99381.81
2023-04-27T21:17:15.340Z,99371.41
2023-04-27T21:19:42.392Z,99374.44
2023-04-27T21:22:09.170Z,99370.19
2023-04-27T21:24:35.886Z,99370.53
2023-04-27T21:27:02.745Z,99370.25
2023-04-27T21:29:29.449Z,99385.56
2023-04-27T21:31:56.353Z,99383.75
2023-04-27T21:34:23.048Z,99355.56
2023-04-27T21:36:49.780Z,99377.19
2023-04-27T21:39:16.576Z,99386.03
2023-04-27T21:41:43.326Z,99384.78
2023-04-27T21:44:10.384Z,99378.38
2023-04-27T21:46:37.537Z,99370.44
2023-04-27T21:49:04.710Z,99374.56
2023-04-27T21:51:34.973Z,99384.41
2023-04-27T21:54:01.873Z,99339.22
2023-04-27T21:56:28.817Z,99371.44
2023-04-27T21:58:55.546Z,99381.38
2023-04-27T22:01:27.065Z,99373.44
2023-04-27T22:03:54.186Z,99387.06
2023-04-27T22:06:21.072Z,99377.69
2023-04-27T22:08:47.886Z,99384.34
2023-04-27T22:11:14.607Z,99369.03
2023-04-27T22:13:41.304Z,99371.47
2023-04-27T22:16:08.131Z,99349.78
2023-04-27T22:18:34.943Z,99372.41
2023-04-27T22:21:01.718Z,99370.69
2023-04-27T22:23:29.896Z,99372.50
2023-04-27T22:25:56.629Z,99371.88
2023-04-27T22:28:23.394Z,99371.66
2023-04-27T22:30:50.187Z,99373.41
2023-04-27T22:33:17.575Z,99368.00
2023-04-27T22:35:44.689Z,99370.56
2023-04-27T22:38:11.527Z,99377.81
2023-04-27T22:40:38.431Z,99358.16
2023-04-27T22:43:05.438Z,99361.47
2023-04-27T22:45:32.378Z,99373.06
2023-04-27T22:47:59.297Z,99364.50
2023-04-27T22:50:26.957Z,99353.22
2023-04-27T22:52:53.628Z,99371.50
2023-04-27T22:55:20.711Z,99378.09
2023-04-27T22:57:47.461Z,99370.78
2023-04-27T23:03:33.278Z,99351.81
2023-04-27T23:06:00.983Z,99364.25
2023-04-27T23:08:28.990Z,99357.97
2023-04-27T23:10:56.914Z,99365.97
2023-04-27T23:13:29.819Z,99367.44
2023-04-27T23:15:56.620Z,99367.06
2023-04-27T23:18:23.320Z,99361.09
2023-04-27T23:20:56.919Z,99377.28
2023-04-27T23:23:23.698Z,99373.66
2023-04-27T23:25:50.507Z,99354.63
2023-04-27T23:28:17.348Z,99363.34
2023-04-27T23:30:44.117Z,99358.75
2023-04-27T23:33:10.859Z,99346.88
2023-04-27T23:35:37.593Z,99355.56
2023-04-27T23:38:04.377Z,99360.88
2023-04-27T23:40:31.300Z,99359.63
2023-04-27T23:42:58.142Z,99345.16
2023-04-27T23:45:24.845Z,99349.00
2023-04-27T23:47:52.042Z,99364.31
2023-04-27T23:50:18.857Z,99367.28
2023-04-27T23:52:45.606Z,99376.09
2023-04-27T23:55:12.406Z,99370.47
2023-04-27T23:57:39.136Z,99385.78
